createdAt,value
2018-09-17T00:00:09.735Z,10.9
2018-09-17T00:00:59.815Z,10.9
2018-09-17T00:01:50.172Z,10.9
2018-09-17T00:02:40.252Z,10.8
2018-09-17T00:03:29.980Z,10.8
2018-09-17T00:04:20.055Z,10.8
2018-09-17T00:05:10.417Z,10.8
2018-09-17T00:06:00.481Z,10.8
2018-09-17T00:06:50.820Z,10.8
2018-09-17T00:07:41.144Z,10.8
2018-09-17T00:08:30.950Z,10.8
2018-09-17T00:09:21.023Z,10.8
2018-09-17T00:10:10.884Z,10.8
2018-09-17T00:11:00.551Z,10.8
2018-09-17T00:11:50.902Z,10.8
2018-09-17T00:12:40.979Z,10.8
2018-09-17T00:13:31.340Z,10.8
2018-09-17T00:14:20.816Z,10.8
2018-09-17T00:15:12.012Z,10.7
2018-09-17T00:16:01.211Z,10.7
2018-09-17T00:16:51.569Z,10.7
2018-09-17T00:17:41.391Z,10.7
2018-09-17T00:18:31.414Z,10.7
2018-09-17T00:19:21.457Z,10.7
2018-09-17T00:20:11.529Z,10.7
2018-09-17T00:21:01.871Z,10.7
2018-09-17T00:21:51.664Z,10.7
2018-09-17T00:22:41.698Z,10.7
2018-09-17T00:23:32.065Z,10.6
2018-09-17T00:24:22.136Z,10.6
2018-09-17T00:25:11.883Z,10.6
2018-09-17T00:26:01.966Z,10.6
2018-09-17T00:26:52.032Z,10.6
2018-09-17T00:27:42.361Z,10.6
2018-09-17T00:28:32.493Z,10.6
2018-09-17T00:29:22.612Z,10.6
2018-09-17T00:30:12.291Z,10.6
2018-09-17T00:31:02.343Z,10.6
2018-09-17T00:31:52.103Z,10.5
2018-09-17T00:32:42.733Z,10.5
2018-09-17T00:33:32.242Z,10.5
2018-09-17T00:34:22.667Z,10.5
2018-09-17T00:35:12.667Z,10.5
2018-09-17T00:36:02.452Z,10.4
2018-09-17T00:36:53.058Z,10.5
2018-09-17T00:56:27.358Z,10.3
2018-09-17T00:57:16.636Z,10.3
2018-09-17T00:58:07.272Z,10.3
2018-09-17T00:58:57.336Z,10.3
2018-09-17T00:59:47.421Z,10.3
2018-09-17T01:00:37.467Z,10.3
2018-09-17T01:01:28.056Z,10.3
2018-09-17T01:02:17.851Z,10.3
2018-09-17T01:03:07.343Z,10.3
2018-09-17T01:03:57.971Z,10.2
2018-09-17T01:04:48.064Z,10.3
2018-09-17T01:05:37.815Z,10.2
2018-09-17T01:06:28.472Z,10.2
2018-09-17T01:07:17.933Z,10.2
2018-09-17T01:08:08.598Z,10.2
2018-09-17T01:08:58.355Z,10.1
2018-09-17T01:09:48.135Z,10.2
2018-09-17T01:10:38.475Z,10.1
2018-09-17T01:11:28.774Z,10.1
2018-09-17T01:12:18.611Z,10.1
2018-09-17T01:13:08.655Z,10.1
2018-09-17T01:13:57.853Z,10.1
2018-09-17T01:14:48.773Z,10.1
2018-09-17T01:15:38.545Z,10.1
2018-09-17T01:16:28.316Z,10.1
2018-09-17T01:17:18.980Z,10.1
2018-09-17T01:18:08.988Z,10
2018-09-17T01:18:59.063Z,10
2018-09-17T01:19:48.853Z,10
2018-09-17T01:20:38.947Z,9.9
2018-09-17T01:21:29.197Z,10
2018-09-17T01:22:19.345Z,9.9
2018-09-17T01:23:09.691Z,9.9
2018-09-17T01:23:59.459Z,9.9
2018-09-17T01:24:49.534Z,9.9
2018-09-17T01:25:39.560Z,9.9
2018-09-17T01:26:29.357Z,9.9
2018-09-17T01:27:19.404Z,9.9
2018-09-17T01:28:09.779Z,9.9
2018-09-17T01:28:59.842Z,9.9
2018-09-17T01:29:49.881Z,9.9
2018-09-17T01:30:40.465Z,9.8
2018-09-17T01:31:29.732Z,9.8
2018-09-17T01:32:19.756Z,9.8
2018-09-17T01:33:10.134Z,9.8
2018-09-17T01:34:00.491Z,9.8
2018-09-17T01:34:50.296Z,9.8
2018-09-17T01:35:39.749Z,9.8
2018-09-17T01:36:30.101Z,9.8
2018-09-17T01:37:19.959Z,9.8
2018-09-17T01:38:10.214Z,9.8
2018-09-17T01:39:00.566Z,9.8
2018-09-17T01:39:50.366Z,9.8
2018-09-17T01:40:40.699Z,9.8
2018-09-17T01:41:30.483Z,9.8
2018-09-17T01:42:20.799Z,9.8
2018-09-17T01:43:10.871Z,9.8
2018-09-17T01:44:00.978Z,9.8
2018-09-17T01:44:50.731Z,9.8
2018-09-17T01:45:40.778Z,9.8
2018-09-17T01:46:30.843Z,9.8
2018-09-17T01:47:20.924Z,9.8
2018-09-17T01:48:11.008Z,9.8
2018-09-17T01:49:01.345Z,9.8
2018-09-17T01:49:51.385Z,9.8
2018-09-17T01:50:41.460Z,9.8
2018-09-17T01:51:31.500Z,9.8
2018-09-17T01:52:21.566Z,9.8
2018-09-17T01:53:11.351Z,9.8
2018-09-17T01:54:01.690Z,9.8
2018-09-17T01:54:51.782Z,9.7
2018-09-17T01:55:41.263Z,9.7
2018-09-17T01:56:31.613Z,9.8
2018-09-17T01:57:21.383Z,9.7
2018-09-17T01:58:11.444Z,9.7
2018-09-17T01:59:01.500Z,9.8
2018-09-17T01:59:51.842Z,9.7
2018-09-17T02:00:41.894Z,9.7
2018-09-17T02:01:31.989Z,9.7
2018-09-17T02:02:22.339Z,9.7
2018-09-17T02:03:12.477Z,9.7
2018-09-17T02:04:02.177Z,9.7
2018-09-17T02:04:52.516Z,9.7
2018-09-17T02:05:42.579Z,9.7
2018-09-17T02:06:32.619Z,9.7
2018-09-17T02:07:22.203Z,9.7
2018-09-17T02:08:12.765Z,9.7
2018-09-17T02:09:02.948Z,9.7
2018-09-17T02:09:53.006Z,9.7
2018-09-17T02:10:42.379Z,9.6
2018-09-17T02:11:32.724Z,9.6
2018-09-17T02:12:22.764Z,9.6
2018-09-17T02:13:12.919Z,9.6
2018-09-17T02:14:02.626Z,9.6
2018-09-17T02:14:52.885Z,9.6
2018-09-17T02:15:43.048Z,9.6
2018-09-17T02:16:33.371Z,9.6
2018-09-17T02:17:23.171Z,9.6
2018-09-17T02:18:13.223Z,9.6
2018-09-17T02:19:03.585Z,9.6
2018-09-17T02:19:53.968Z,9.6
2018-09-17T02:20:43.411Z,9.6
2018-09-17T02:21:33.466Z,9.6
2018-09-17T02:22:23.806Z,9.6
2018-09-17T02:23:13.608Z,9.6
2018-09-17T02:24:03.463Z,9.6
2018-09-17T02:24:54.003Z,9.6
2018-09-17T02:25:44.055Z,9.6
2018-09-17T02:26:34.141Z,9.6
2018-09-17T02:27:24.184Z,9.6
2018-09-17T02:28:14.245Z,9.6
2018-09-17T02:29:04.281Z,9.6
2018-09-17T02:29:54.400Z,9.6
2018-09-17T02:30:43.584Z,9.6
2018-09-17T02:31:34.261Z,9.6
2018-09-17T02:32:24.304Z,9.6
2018-09-17T02:33:14.348Z,9.6
2018-09-17T02:34:04.935Z,9.6
2018-09-17T02:34:54.470Z,9.6
2018-09-17T02:35:44.230Z,9.6
2018-09-17T02:36:34.620Z,9.6
2018-09-17T02:37:24.653Z,9.6
2018-09-17T02:38:14.702Z,9.6
2018-09-17T02:39:05.047Z,9.6
2018-09-17T02:39:55.144Z,9.6
2018-09-17T02:40:45.172Z,9.6
2018-09-17T02:41:34.977Z,9.6
2018-09-17T02:42:25.323Z,9.7
2018-09-17T02:43:14.815Z,9.6
2018-09-17T02:44:05.147Z,9.7
2018-09-17T02:44:55.264Z,9.7
2018-09-17T02:45:44.999Z,9.7
2018-09-17T02:46:35.326Z,9.7
2018-09-17T02:47:25.419Z,9.7
2018-09-17T02:48:15.987Z,9.8
2018-09-17T02:49:05.570Z,9.7
2018-09-17T02:49:55.946Z,9.8
2018-09-17T02:50:45.942Z,9.7
2018-09-17T02:51:35.724Z,9.8
2018-09-17T02:52:26.062Z,9.8
2018-09-17T02:53:16.124Z,9.8
2018-09-17T02:54:06.177Z,9.8
2018-09-17T02:54:56.239Z,9.8
2018-09-17T02:55:46.085Z,9.8
2018-09-17T02:56:36.366Z,9.8
2018-09-17T02:57:26.149Z,9.8
2018-09-17T02:58:16.519Z,9.8
2018-09-17T02:59:07.076Z,9.8
2018-09-17T02:59:56.629Z,9.8
2018-09-17T03:00:46.402Z,9.8
2018-09-17T03:01:36.873Z,9.8
2018-09-17T03:02:26.804Z,9.8
2018-09-17T03:03:16.579Z,9.8
2018-09-17T03:04:06.956Z,9.8
2018-09-17T03:04:56.702Z,9.8
2018-09-17T03:05:47.064Z,9.8
2018-09-17T03:06:37.123Z,9.8
2018-09-17T03:07:27.171Z,9.8
2018-09-17T03:08:17.283Z,9.8
2018-09-17T03:09:06.726Z,9.8
2018-09-17T03:09:57.378Z,9.8
2018-09-17T03:10:47.133Z,9.8
2018-09-17T03:11:37.493Z,9.8
2018-09-17T03:12:27.571Z,9.8
2018-09-17T03:13:17.606Z,9.8
2018-09-17T03:14:07.673Z,9.8
2018-09-17T03:14:57.786Z,9.8
2018-09-17T03:15:47.830Z,9.8
2018-09-17T03:16:37.859Z,9.8
2018-09-17T03:17:27.691Z,9.8
2018-09-17T03:18:17.993Z,9.8
2018-09-17T03:19:08.035Z,9.8
2018-09-17T03:19:57.597Z,9.8
2018-09-17T03:20:48.155Z,9.8
2018-09-17T03:21:38.003Z,9.8
2018-09-17T03:22:28.565Z,9.8
2018-09-17T03:23:18.373Z,9.8
2018-09-17T03:24:08.407Z,9.8
2018-09-17T03:24:58.512Z,9.8
2018-09-17T03:25:48.320Z,9.8
2018-09-17T03:26:38.613Z,9.8
2018-09-17T03:27:28.667Z,9.8
2018-09-17T03:28:18.745Z,9.8
2018-09-17T03:29:08.800Z,9.8
2018-09-17T03:29:58.855Z,9.8
2018-09-17T03:30:48.586Z,9.8
2018-09-17T03:31:38.982Z,9.8
2018-09-17T03:32:28.768Z,9.8
2018-09-17T03:33:19.105Z,9.8
2018-09-17T03:34:09.180Z,9.8
2018-09-17T03:34:58.681Z,9.9
2018-09-17T03:35:49.045Z,9.9
2018-09-17T03:36:39.057Z,9.9
2018-09-17T03:37:29.436Z,9.9
2018-09-17T03:38:18.894Z,9.9
2018-09-17T03:39:09.526Z,10
2018-09-17T03:39:59.596Z,10
2018-09-17T03:40:49.384Z,10
2018-09-17T03:41:39.716Z,10
2018-09-17T03:42:29.585Z,10
2018-09-17T03:43:19.849Z,10
2018-09-17T03:44:09.688Z,10
2018-09-17T03:44:59.975Z,10.1
2018-09-17T03:45:49.493Z,10.1
2018-09-17T03:46:40.709Z,10.1
2018-09-17T03:47:30.224Z,10.1
2018-09-17T03:48:20.304Z,10.1
2018-09-17T03:49:10.510Z,10.1
2018-09-17T03:50:00.092Z,10.1
2018-09-17T03:50:49.838Z,10.1
2018-09-17T03:51:40.496Z,10.1
2018-09-17T03:52:30.544Z,10.1
2018-09-17T05:25:23.025Z,20.7
2018-09-17T05:26:12.297Z,21.1
2018-09-17T05:27:02.648Z,21.3
2018-09-17T05:27:52.405Z,21.6
2018-09-17T05:28:42.510Z,21.9
2018-09-17T05:29:32.560Z,22.3
2018-09-17T05:30:22.859Z,22.6
2018-09-17T05:31:12.951Z,22.9
2018-09-17T05:32:03.007Z,23.2
2018-09-17T05:32:52.809Z,23.5
2018-09-17T05:33:42.566Z,23.9
2018-09-17T05:34:32.128Z,24.3
2018-09-17T05:35:22.962Z,24.6
2018-09-17T05:36:13.308Z,24.9
2018-09-17T05:37:03.418Z,25.2
2018-09-17T05:37:53.152Z,25.5
2018-09-17T05:38:43.465Z,25.9
2018-09-17T05:39:33.428Z,26.3
2018-09-17T05:40:23.619Z,26.7
2018-09-17T05:41:13.417Z,27.1
2018-09-17T05:42:03.472Z,27.5
2018-09-17T05:42:53.817Z,27.9
2018-09-17T05:43:43.888Z,28.3
2018-09-17T05:44:34.922Z,28.8
2018-09-17T05:45:23.798Z,29.2
2018-09-17T05:46:14.129Z,29.6
2018-09-17T05:47:04.196Z,30.1
2018-09-17T05:47:53.619Z,30.6
2018-09-17T05:48:44.242Z,31.1
2018-09-17T05:49:34.050Z,31.6
2018-09-17T05:50:24.422Z,32.1
2018-09-17T05:51:14.182Z,32.6
2018-09-17T05:52:04.330Z,33.1
2018-09-17T05:52:54.404Z,33.6
2018-09-17T05:53:44.882Z,34.1
2018-09-17T05:54:34.449Z,34.6
2018-09-17T05:55:24.789Z,34.9
2018-09-17T05:56:14.882Z,35.4
2018-09-17T05:57:04.884Z,35.8
2018-09-17T05:57:54.668Z,36
2018-09-17T05:58:45.021Z,36.2
2018-09-17T05:59:34.971Z,36.5
2018-09-17T06:00:25.131Z,36.8
2018-09-17T06:01:14.881Z,37.1
2018-09-17T06:02:05.257Z,37.5
2018-09-17T06:02:55.313Z,37.9
2018-09-17T06:03:45.392Z,38.3
2018-09-17T06:04:35.560Z,38.6
2018-09-17T06:05:25.668Z,39.1
2018-09-17T06:06:15.526Z,39.4
2018-09-17T06:07:06.223Z,39.9
2018-09-17T06:07:55.696Z,40.3
2018-09-17T06:08:45.760Z,40.7
2018-09-17T06:09:36.055Z,41.1
2018-09-17T06:10:25.912Z,41.4
2018-09-17T06:11:16.050Z,41.8
2018-09-17T06:12:06.054Z,42.2
2018-09-17T06:12:55.817Z,42.6
2018-09-17T06:13:46.379Z,42.9
2018-09-17T06:14:36.222Z,43.3
2018-09-17T06:15:26.243Z,43.7
2018-09-17T06:16:16.619Z,44.1
2018-09-17T06:17:06.405Z,44.4
2018-09-17T06:17:55.691Z,44.7
2018-09-17T06:18:45.641Z,45.1
2018-09-17T06:19:36.013Z,45.4
2018-09-17T06:20:26.366Z,45.6
2018-09-17T06:21:16.408Z,45.6
2018-09-17T06:22:06.748Z,45.6
2018-09-17T06:22:56.558Z,45.5
2018-09-17T06:23:46.591Z,45.4
2018-09-17T06:24:36.680Z,45.4
2018-09-17T06:25:27.058Z,45.4
2018-09-17T06:26:16.793Z,45.3
2018-09-17T06:27:07.370Z,45.2
2018-09-17T06:27:57.307Z,45.1
2018-09-17T06:28:47.284Z,45
2018-09-17T06:29:37.363Z,45
2018-09-17T06:30:27.415Z,44.9
2018-09-17T06:31:17.485Z,44.7
2018-09-17T06:32:07.488Z,44.6
2018-09-17T06:32:57.030Z,44.5
2018-09-17T06:33:47.637Z,44.4
2018-09-17T06:34:37.713Z,44.4
2018-09-17T06:35:27.794Z,44.4
2018-09-17T06:36:18.111Z,44.6
2018-09-17T06:37:07.927Z,44.7
2018-09-17T06:37:57.396Z,44.8
2018-09-17T06:38:48.007Z,44.8
2018-09-17T06:39:37.784Z,44.8
2018-09-17T06:40:28.153Z,44.8
2018-09-17T06:41:18.239Z,44.7
2018-09-17T06:42:08.215Z,44.7
2018-09-17T06:42:58.513Z,44.6
2018-09-17T06:43:48.369Z,44.5
2018-09-17T06:44:38.445Z,44.6
2018-09-17T06:45:28.515Z,44.8
2018-09-17T06:46:18.604Z,45.1
2018-09-17T06:47:08.087Z,45.5
2018-09-17T06:47:59.022Z,46
2018-09-17T06:48:48.514Z,46.6
2018-09-17T06:49:38.835Z,47.1
2018-09-17T06:50:28.909Z,47.4
2018-09-17T06:51:18.938Z,47.6
2018-09-17T06:52:09.115Z,47.7
2018-09-17T06:52:59.126Z,47.9
2018-09-17T06:53:49.549Z,48
2018-09-17T06:54:38.916Z,48.1
2018-09-17T06:55:29.264Z,48.1
2018-09-17T06:56:19.316Z,48.1
2018-09-17T06:57:09.366Z,48
2018-09-17T06:57:59.425Z,48.1
2018-09-17T06:58:49.243Z,48.3
2018-09-17T06:59:38.994Z,48.4
2018-09-17T07:00:29.695Z,48.6
2018-09-17T07:01:19.781Z,48.9
2018-09-17T07:02:09.501Z,49
2018-09-17T07:02:59.835Z,49
2018-09-17T07:03:49.872Z,49
2018-09-17T07:04:39.647Z,48.9
2018-09-17T07:05:30.312Z,48.9
2018-09-17T07:06:20.461Z,48.9
2018-09-17T07:07:09.859Z,48.9
2018-09-17T07:07:59.917Z,49
2018-09-17T07:08:50.244Z,49.2
2018-09-17T07:09:40.039Z,49.4
2018-09-17T07:10:30.101Z,49.6
2018-09-17T07:11:19.869Z,49.9
2018-09-17T07:12:10.522Z,50.1
2018-09-17T07:13:00.570Z,50.3
2018-09-17T07:13:50.631Z,50.5
2018-09-17T07:14:40.411Z,50.9
2018-09-17T07:15:30.636Z,51.6
2018-09-17T07:16:20.956Z,52.5
2018-09-17T07:17:10.890Z,53.6
2018-09-17T07:18:00.543Z,54.6
2018-09-17T07:18:50.736Z,55.3
2018-09-17T07:19:41.077Z,55.9
2018-09-17T07:20:30.833Z,56.8
2018-09-17T07:21:20.919Z,57.4
2018-09-17T07:22:11.258Z,55.4
2018-09-17T07:23:01.319Z,53.1
2018-09-17T07:23:51.691Z,46.9
2018-09-17T07:24:41.435Z,42.6
2018-09-17T07:25:31.518Z,40.7
2018-09-17T07:26:21.570Z,39.9
2018-09-17T07:27:11.674Z,40.1
2018-09-17T07:28:01.447Z,41.3
2018-09-17T07:28:51.778Z,43.1
2018-09-17T07:29:41.548Z,44.7
2018-09-17T07:30:31.930Z,46.1
2018-09-17T07:31:21.967Z,47.4
2018-09-17T07:32:11.726Z,48.6
2018-09-17T07:33:01.799Z,49.9
2018-09-17T07:33:52.150Z,51.4
2018-09-17T07:34:42.193Z,52.8
2018-09-17T07:35:32.251Z,53.8
2018-09-17T07:36:23.267Z,54.8
2018-09-17T07:37:12.403Z,55.9
2018-09-17T07:38:01.885Z,57.1
2018-09-17T07:38:52.519Z,59.5
2018-09-17T07:39:42.293Z,57.9
2018-09-17T07:40:32.685Z,56.1
2018-09-17T07:41:22.702Z,53.2
2018-09-17T07:42:12.906Z,49.6
2018-09-17T07:43:02.816Z,47.4
2018-09-17T07:43:52.932Z,46.5
2018-09-17T07:44:42.964Z,46.6
2018-09-17T07:45:32.735Z,47.6
2018-09-17T07:46:22.811Z,49.2
2018-09-17T07:47:13.124Z,50.8
2018-09-17T07:48:03.215Z,52.6
2018-09-17T07:48:53.517Z,54.4
2018-09-17T07:49:43.042Z,55.9
2018-09-17T07:50:33.449Z,58.4
2018-09-17T07:51:22.925Z,59.1
2018-09-17T07:52:12.946Z,58.3
2018-09-17T07:53:03.506Z,57.4
2018-09-17T07:53:53.617Z,54.6
2018-09-17T07:54:43.426Z,51.8
2018-09-17T07:55:33.811Z,49.9
2018-09-17T07:56:23.879Z,49.8
2018-09-17T07:57:13.886Z,50.6
2018-09-17T07:58:03.976Z,51.4
2018-09-17T07:58:54.114Z,52.1
2018-09-17T07:59:44.074Z,52
2018-09-17T08:00:33.874Z,51.6
2018-09-17T08:01:24.254Z,51
2018-09-17T08:02:14.275Z,50.6
2018-09-17T08:03:04.328Z,50.6
2018-09-17T08:03:54.515Z,50.7
2018-09-17T08:04:44.485Z,50.9
2018-09-17T08:05:33.723Z,51.1
2018-09-17T08:06:24.419Z,51.1
2018-09-17T08:07:14.658Z,51.1
2018-09-17T08:08:04.713Z,50.9
2018-09-17T08:08:55.058Z,50.9
2018-09-17T08:09:44.838Z,50.9
2018-09-17T08:10:34.896Z,51.1
2018-09-17T08:11:24.697Z,51.3
2018-09-17T08:12:15.058Z,51.4
2018-09-17T08:13:05.415Z,51.5
2018-09-17T08:13:54.884Z,51.6
2018-09-17T08:14:45.254Z,51.6
2018-09-17T08:15:35.283Z,51.7
2018-09-17T08:16:25.104Z,51.9
2018-09-17T08:17:15.427Z,52
2018-09-17T08:18:05.493Z,52.1
2018-09-17T08:18:55.588Z,52.2
2018-09-17T08:19:45.536Z,52.3
2018-09-17T08:21:25.721Z,52.4
2018-09-17T08:22:15.519Z,52.6
2018-09-17T08:23:05.563Z,52.4
2018-09-17T08:25:36.040Z,52.4
2018-09-17T08:26:25.534Z,52.6
2018-09-17T08:27:15.876Z,52.9
2018-09-17T08:28:06.217Z,53.1
2018-09-17T08:28:56.307Z,53.3
2018-09-17T08:29:45.948Z,53.4
2018-09-17T08:30:36.178Z,53.5
2018-09-17T08:31:26.112Z,53.6
2018-09-17T08:32:16.538Z,53.6
2018-09-17T08:33:06.049Z,53.8
2018-09-17T08:33:56.140Z,53.8
2018-09-17T08:34:46.833Z,53.8
2018-09-17T08:35:36.821Z,53.9
2018-09-17T08:36:26.939Z,54
2018-09-17T08:37:16.664Z,54.1
2018-09-17T08:38:06.924Z,54.3
2018-09-17T08:38:56.524Z,54.4
2018-09-17T08:39:47.495Z,54.5
2018-09-17T08:40:36.913Z,54.8
2018-09-17T08:41:27.444Z,54.8
2018-09-17T08:42:17.079Z,54.9
2018-09-17T08:43:07.151Z,55.1
2018-09-17T08:43:57.498Z,55.3
2018-09-17T08:44:47.761Z,55.3
2018-09-17T08:45:37.287Z,55.3
2018-09-17T08:46:27.980Z,55.4
2018-09-17T08:47:17.705Z,55.5
2018-09-17T08:48:07.746Z,55.6
2018-09-17T08:48:57.525Z,55.8
2018-09-17T08:49:47.872Z,55.9
2018-09-17T08:50:37.665Z,56.1
2018-09-17T08:51:28.005Z,56.3
2018-09-17T08:52:17.616Z,56.5
2018-09-17T08:53:08.090Z,56.4
2018-09-17T08:53:58.350Z,56.4
2018-09-17T08:54:47.785Z,56.5
2018-09-17T08:55:37.574Z,56.2
2018-09-17T08:56:27.912Z,56.2
2018-09-17T08:57:17.903Z,56.3
2018-09-17T08:58:08.910Z,56.3
2018-09-17T08:58:58.288Z,56.5
2018-09-17T08:59:48.692Z,56.7
2018-09-17T09:00:38.435Z,56.8
2018-09-17T09:01:28.778Z,56.6
2018-09-17T09:02:18.548Z,56.6
2018-09-17T09:03:08.615Z,56.8
2018-09-17T09:03:59.467Z,57
2018-09-17T09:04:48.741Z,57.1
2018-09-17T09:05:39.186Z,57.2
2018-09-17T09:06:28.772Z,57.4
2018-09-17T09:07:18.948Z,57.6
2018-09-17T09:08:09.072Z,57.8
2018-09-17T09:08:58.880Z,58
2018-09-17T09:09:49.369Z,58.3
2018-09-17T09:10:39.469Z,58.4
2018-09-17T09:11:29.284Z,58.4
2018-09-17T09:12:19.304Z,58.4
2018-09-17T09:13:09.649Z,58.6
2018-09-17T09:13:59.452Z,58.8
2018-09-17T09:14:49.120Z,58.8
2018-09-17T09:15:39.864Z,58.9
2018-09-17T09:16:29.917Z,58.8
2018-09-17T09:17:19.986Z,58.9
2018-09-17T09:18:10.030Z,59.3
2018-09-17T09:19:00.110Z,59.5
2018-09-17T09:19:49.931Z,59.8
2018-09-17T09:20:39.673Z,59.8
2018-09-17T09:21:29.971Z,59.9
2018-09-17T09:22:20.071Z,59.9
2018-09-17T09:23:10.448Z,60
2018-09-17T09:39:59.001Z,61.1
2018-09-17T09:40:41.287Z,61.5
2018-09-17T09:41:31.327Z,61.7
2018-09-17T09:42:21.407Z,61.9
2018-09-17T09:43:11.202Z,62
2018-09-17T09:44:01.519Z,62.2
2018-09-17T09:44:51.584Z,62.1
2018-09-17T09:45:42.004Z,62.1
2018-09-17T09:46:31.645Z,62.1
2018-09-17T09:47:21.272Z,62.1
2018-09-17T09:48:11.336Z,62.2
2018-09-17T09:49:01.905Z,62.4
2018-09-17T09:49:51.942Z,62.3
2018-09-17T09:50:42.026Z,62.3
2018-09-17T09:51:31.577Z,62.4
2018-09-17T09:52:21.372Z,62.6
2018-09-17T09:53:11.719Z,62.7
2018-09-17T09:54:01.978Z,62.8
2018-09-17T09:54:52.309Z,63.1
2018-09-17T09:55:42.650Z,63.1
2018-09-17T09:56:32.509Z,63.1
2018-09-17T09:57:22.520Z,63
2018-09-17T09:58:12.591Z,63.1
2018-09-17T09:59:01.869Z,63.3
2018-09-17T09:59:52.711Z,63.3
2018-09-17T10:00:42.779Z,63.4
2018-09-17T10:01:32.563Z,63.5
2018-09-17T10:02:22.935Z,63.6
2018-09-17T10:03:12.662Z,63.4
2018-09-17T10:04:03.041Z,63.4
2018-09-17T10:04:52.808Z,63.3
2018-09-17T10:05:42.686Z,63.3
2018-09-17T10:06:33.467Z,63.5
2018-09-17T10:07:23.031Z,63.6
2018-09-17T10:08:13.340Z,63.7
2018-09-17T10:09:03.131Z,63.8
2018-09-17T10:09:53.458Z,63.8
2018-09-17T10:10:43.520Z,63.9
2018-09-17T10:11:33.428Z,64
2018-09-17T10:12:23.651Z,64.1
2018-09-17T10:13:13.718Z,64.3
2018-09-17T10:14:03.012Z,64.6
2018-09-17T10:14:53.571Z,64.8
2018-09-17T10:15:43.928Z,64.8
2018-09-17T10:16:33.974Z,64.9
2018-09-17T10:17:24.038Z,64.8
2018-09-17T10:18:13.827Z,64.8
2018-09-17T10:19:03.870Z,64.9
2018-09-17T10:19:53.979Z,65
2018-09-17T10:20:44.285Z,65.1
2018-09-17T10:21:34.365Z,65.3
2018-09-17T10:22:24.430Z,65.3
2018-09-17T10:23:14.481Z,65.3
2018-09-17T10:24:04.554Z,65.4
2018-09-17T10:24:54.602Z,65.4
2018-09-17T10:25:44.662Z,65.2
2018-09-17T10:26:34.735Z,65.2
2018-09-17T10:27:24.804Z,64.9
2018-09-17T10:28:15.117Z,64.2
2018-09-17T10:29:04.652Z,63.6
2018-09-17T10:29:55.498Z,63.9
2018-09-17T10:30:44.767Z,64.4
2018-09-17T10:31:35.129Z,64.4
2018-09-17T10:32:24.889Z,63.3
2018-09-17T10:33:14.686Z,61.8
2018-09-17T10:34:05.313Z,59.9
2018-09-17T10:35:45.428Z,57.8
2018-09-17T10:36:34.920Z,57.4
2018-09-17T10:37:25.826Z,57.8
2018-09-17T10:39:05.790Z,59.4
2018-09-17T10:39:55.749Z,60.9
2018-09-17T10:40:45.828Z,62.1
2018-09-17T10:41:35.895Z,62.8
2018-09-17T10:42:25.935Z,63.1
2018-09-17T10:43:15.723Z,63.2
2018-09-17T10:44:05.796Z,63.3
2018-09-17T10:44:55.860Z,63.5
2018-09-17T10:45:45.921Z,63.8
2018-09-17T10:46:35.480Z,63.9
2018-09-17T10:47:26.316Z,63.9
2018-09-17T10:48:16.401Z,64.1
2018-09-17T10:49:06.751Z,64.6
2018-09-17T10:49:56.258Z,65.1
2018-09-17T10:50:46.315Z,65.3
2018-09-17T10:51:36.634Z,65.6
2018-09-17T10:52:26.135Z,65.8
2018-09-17T10:53:16.764Z,66
2018-09-17T10:54:06.868Z,66.1
2018-09-17T10:54:56.884Z,66.3
2018-09-17T10:55:46.670Z,66.4
2018-09-17T10:56:37.048Z,66.5
2018-09-17T10:57:27.635Z,66.4
2018-09-17T10:58:16.868Z,66.4
2018-09-17T10:59:07.268Z,65.8
2018-09-17T10:59:57.030Z,64.8
2018-09-17T11:00:47.328Z,64.9
2018-09-17T11:01:36.836Z,65.3
2018-09-17T11:02:27.168Z,65.7
2018-09-17T11:03:17.520Z,66.1
2018-09-17T11:04:07.309Z,66.4
2018-09-17T11:04:57.407Z,66.5
2018-09-17T11:05:47.453Z,66.4
2018-09-17T11:06:37.558Z,66.4
2018-09-17T11:07:27.834Z,66.6
2018-09-17T11:08:17.521Z,66.3
2018-09-17T11:09:07.994Z,65.1
2018-09-17T11:09:58.031Z,63.9
2018-09-17T11:10:48.094Z,64
2018-09-17T11:11:38.189Z,64.8
2018-09-17T11:12:28.237Z,65.7
2018-09-17T11:13:18.331Z,66.3
2018-09-17T11:14:08.073Z,66.6
2018-09-17T11:14:58.167Z,66.6
2018-09-17T11:15:48.485Z,66.2
2018-09-17T11:16:38.551Z,64.9
2018-09-17T11:17:28.763Z,64.3
2018-09-17T11:18:18.731Z,64.9
2018-09-17T11:19:08.771Z,65.4
2018-09-17T11:19:58.828Z,66.2
2018-09-17T11:20:48.632Z,66.7
2018-09-17T11:21:38.941Z,66.8
2018-09-17T11:22:28.735Z,66.6
2018-09-17T11:23:19.226Z,66.2
2018-09-17T11:24:08.836Z,65.5
2018-09-17T11:24:58.936Z,65
2018-09-17T11:25:48.959Z,65.1
2018-09-17T11:26:39.317Z,65.3
2018-09-17T11:27:29.101Z,65.1
2018-09-17T11:28:19.404Z,63.8
2018-09-17T11:29:09.209Z,62.2
2018-09-17T11:29:59.291Z,61.4
2018-09-17T11:30:49.626Z,61.8
2018-09-17T11:31:39.412Z,62.9
2018-09-17T11:32:29.891Z,63.1
2018-09-17T11:33:19.131Z,62.1
2018-09-17T11:34:09.436Z,60.6
2018-09-17T11:34:59.670Z,59.1
2018-09-17T11:35:50.011Z,57.7
2018-09-17T11:36:40.057Z,56.8
2018-09-17T11:37:29.881Z,56.3
2018-09-17T11:38:19.975Z,56
2018-09-17T11:39:10.257Z,55.8
2018-09-17T11:40:00.310Z,55.5
2018-09-17T11:40:50.397Z,55.1
2018-09-17T11:41:39.980Z,54.8
2018-09-17T11:42:30.523Z,54.2
2018-09-17T11:43:20.875Z,53.6
2018-09-17T11:44:10.645Z,53.3
2018-09-17T11:45:00.751Z,52.9
2018-09-17T11:45:50.475Z,52.8
2018-09-17T11:46:40.822Z,52.7
2018-09-17T11:47:30.609Z,52.6
2018-09-17T11:48:21.180Z,52.6
2018-09-17T11:49:10.722Z,53.2
2018-09-17T11:50:01.098Z,54
2018-09-17T11:50:51.142Z,54.7
2018-09-17T11:51:40.927Z,55.4
2018-09-17T11:52:31.269Z,56.3
2018-09-17T11:53:21.334Z,57.3
2018-09-17T11:54:11.212Z,58.1
2018-09-17T11:55:01.473Z,58.9
2018-09-17T11:55:51.873Z,59.3
2018-09-17T11:56:41.302Z,59.4
2018-09-17T11:57:31.667Z,59.3
2018-09-17T11:58:21.714Z,59
2018-09-17T11:59:11.289Z,58.6
2018-09-17T12:00:01.839Z,58.4
2018-09-17T12:00:51.958Z,58.3
2018-09-17T12:01:42.470Z,57.9
2018-09-17T12:02:32.040Z,57.7
2018-09-17T12:03:22.107Z,57.3
2018-09-17T12:04:12.188Z,57
2018-09-17T12:05:02.229Z,56.7
2018-09-17T12:05:52.006Z,56.4
2018-09-17T12:06:42.351Z,56.2
2018-09-17T12:07:32.543Z,56.2
2018-09-17T12:08:22.494Z,56.5
2018-09-17T12:09:13.153Z,57.1
2018-09-17T12:10:02.624Z,57.7
2018-09-17T12:10:52.441Z,57.8
2018-09-17T12:11:42.731Z,57.9
2018-09-17T12:13:22.858Z,57.3
2018-09-17T12:14:12.925Z,57.1
2018-09-17T12:15:02.711Z,57.2
2018-09-17T12:15:52.476Z,57.7
2018-09-17T12:17:33.173Z,59.5
2018-09-17T12:18:22.963Z,60.9
2018-09-17T12:19:13.303Z,62.2
2018-09-17T12:20:03.379Z,63.4
2018-09-17T12:20:53.675Z,64.6
2018-09-17T12:21:43.546Z,65.3
2018-09-17T12:22:33.566Z,66.9
2018-09-17T12:23:23.622Z,65.8
2018-09-17T12:24:13.688Z,64.5
2018-09-17T12:25:03.754Z,61.1
2018-09-17T12:25:53.526Z,56.8
2018-09-17T12:26:43.596Z,54.4
2018-09-17T12:27:33.941Z,53.9
2018-09-17T12:28:24.016Z,54.6
2018-09-17T12:29:14.064Z,55.9
2018-09-17T12:30:04.129Z,57.3
2018-09-17T12:30:53.909Z,58.4
2018-09-17T12:31:44.255Z,59.4
2018-09-17T12:32:34.346Z,60.4
2018-09-17T12:33:24.390Z,61.6
2018-09-17T12:34:14.455Z,63
2018-09-17T12:35:04.506Z,65.6
2018-09-17T12:35:54.596Z,66.7
2018-09-17T12:36:44.659Z,65.9
2018-09-17T12:37:34.738Z,64.8
2018-09-17T12:38:24.766Z,62.4
2018-09-17T12:39:14.823Z,59.9
2018-09-17T12:40:04.895Z,58.3
2018-09-17T12:40:54.966Z,58.3
2018-09-17T12:41:45.013Z,59.5
2018-09-17T12:42:35.081Z,60.6
2018-09-17T12:43:25.399Z,61.2
2018-09-17T12:44:15.228Z,61.4
2018-09-17T12:45:05.306Z,61.3
2018-09-17T12:45:55.732Z,61.1
2018-09-17T12:46:45.396Z,61
2018-09-17T12:47:35.198Z,61.1
2018-09-17T12:48:25.593Z,61
2018-09-17T12:49:15.599Z,61
2018-09-17T12:50:05.668Z,60.9
2018-09-17T12:50:55.500Z,60.7
2018-09-17T12:51:45.885Z,60.5
2018-09-17T12:52:35.843Z,60.3
2018-09-17T12:53:26.158Z,59.7
2018-09-17T12:54:15.780Z,58.9
2018-09-17T12:55:06.032Z,58.9
2018-09-17T12:55:56.098Z,59.4
2018-09-17T12:56:46.219Z,59.4
2018-09-17T12:57:36.200Z,58.8
2018-09-17T12:58:26.367Z,57.4
2018-09-17T12:59:16.074Z,56.1
2018-09-17T13:00:06.422Z,55.3
2018-09-17T13:00:56.400Z,54.7
2018-09-17T13:01:46.072Z,54.3
2018-09-17T13:02:36.914Z,53.9
2018-09-17T13:03:27.166Z,53.6
2018-09-17T13:04:16.755Z,53.5
2018-09-17T13:05:06.806Z,53.9
2018-09-17T13:05:56.864Z,54.6
2018-09-17T13:06:46.981Z,55.6
2018-09-17T13:07:36.949Z,56.6
2018-09-17T13:08:27.071Z,57.7
2018-09-17T13:09:17.111Z,58.8
2018-09-17T13:10:07.189Z,59.9
2018-09-17T13:10:57.260Z,60.9
2018-09-17T13:11:47.024Z,61.8
2018-09-17T13:12:37.671Z,62.5
2018-09-17T13:13:27.439Z,64.6
2018-09-17T13:14:17.579Z,65.1
2018-09-17T13:15:07.577Z,63.9
2018-09-17T13:15:57.634Z,62.3
2018-09-17T13:16:47.419Z,59.8
2018-09-17T13:17:37.798Z,57.7
2018-09-17T13:18:27.871Z,56.8
2018-09-17T13:19:17.599Z,57.3
2018-09-17T13:20:07.401Z,58.1
2018-09-17T13:20:57.724Z,58.6
2018-09-17T13:21:47.839Z,58.8
2018-09-17T13:22:38.136Z,58.6
2018-09-17T13:23:28.196Z,58.2
2018-09-17T13:24:18.233Z,57.8
2018-09-17T13:25:08.917Z,57.6